createdAt,value
2022-09-04T00:01:23.861Z,100453.50
2022-09-04T00:04:14.807Z,100458.19
2022-09-04T00:06:56.150Z,100458.94
2022-09-04T00:09:32.968Z,100463.50
2022-09-04T00:12:08.623Z,100464.06
2022-09-04T00:14:44.260Z,100472.19
2022-09-04T00:17:21.062Z,100471.31
2022-09-04T00:19:59.277Z,100480.81
2022-09-04T00:22:34.940Z,100477.03
2022-09-04T00:25:14.189Z,100478.94
2022-09-04T00:27:49.747Z,100484.38
2022-09-04T00:30:21.555Z,100487.00
2022-09-04T00:33:10.562Z,100485.22
2022-09-04T00:35:49.674Z,100485.22
2022-09-04T00:38:25.774Z,100488.00
2022-09-04T00:41:07.921Z,100483.75
2022-09-04T00:43:56.166Z,100492.00
2022-09-04T00:47:06.966Z,100498.16
2022-09-04T00:49:57.356Z,100506.97
2022-09-04T00:52:58.339Z,100497.56
2022-09-04T00:55:45.604Z,100500.50
2022-09-04T00:58:48.651Z,100503.72
2022-09-04T01:01:24.684Z,100506.53
2022-09-04T01:04:17.143Z,100507.25
2022-09-04T01:06:56.532Z,100512.84
2022-09-04T01:09:53.684Z,100513.16
2022-09-04T01:12:37.374Z,100512.72
2022-09-04T01:15:16.579Z,100512.84
2022-09-04T01:17:58.517Z,100515.91
2022-09-04T01:20:46.911Z,100521.78
2022-09-04T01:23:32.162Z,100524.44
2022-09-04T01:26:10.409Z,100519.25
2022-09-04T01:28:51.686Z,100531.03
2022-09-04T01:31:27.535Z,100531.03
2022-09-04T01:34:11.251Z,100525.59
2022-09-04T01:36:48.716Z,100533.38
2022-09-04T01:39:22.402Z,100528.69
2022-09-04T01:41:59.959Z,100536.78
2022-09-04T01:44:28.011Z,100530.00
2022-09-04T01:47:08.682Z,100534.53
2022-09-04T01:49:39.285Z,100537.75
2022-09-04T01:52:23.530Z,100539.66
2022-09-04T01:54:57.029Z,100543.34
2022-09-04T01:57:37.049Z,100542.31
2022-09-04T02:00:10.235Z,100548.91
2022-09-04T02:02:55.343Z,100543.81
2022-09-04T02:05:30.948Z,100542.19
2022-09-04T02:08:21.236Z,100538.94
2022-09-04T02:10:57.097Z,100538.03
2022-09-04T02:13:40.201Z,100539.38
2022-09-04T02:16:15.979Z,100553.78
2022-09-04T02:18:51.805Z,100553.38
2022-09-04T02:21:29.152Z,100543.38
2022-09-04T02:24:05.992Z,100544.88
2022-09-04T02:26:41.569Z,100546.50
2022-09-04T02:29:21.164Z,100549.41
2022-09-04T02:31:54.580Z,100548.38
2022-09-04T02:34:34.075Z,100554.53
2022-09-04T02:37:07.833Z,100548.69
2022-09-04T02:39:48.140Z,100543.69
2022-09-04T02:42:31.920Z,100536.53
2022-09-04T02:45:14.820Z,100544.63
2022-09-04T02:47:48.639Z,100547.84
2022-09-04T02:50:33.475Z,100549.94
2022-09-04T02:53:12.605Z,100552.72
2022-09-04T02:55:57.599Z,100552.56
2022-09-04T02:58:39.580Z,100549.34
2022-09-04T03:01:15.800Z,100555.94
2022-09-04T03:03:51.554Z,100553.31
2022-09-04T03:06:24.686Z,100556.97
2022-09-04T03:09:00.857Z,100562.88
2022-09-04T03:11:36.474Z,100567.00
2022-09-04T03:14:12.108Z,100565.34
2022-09-04T03:16:48.801Z,100568.88
2022-09-04T03:19:23.401Z,100573.00
2022-09-04T03:21:57.788Z,100571.94
2022-09-04T03:24:34.272Z,100580.91
2022-09-04T03:27:05.623Z,100580.19
2022-09-04T03:29:43.537Z,100588.59
2022-09-04T03:32:21.733Z,100581.25
2022-09-04T03:34:57.499Z,100582.28
2022-09-04T03:37:42.669Z,100580.22
2022-09-04T03:40:22.138Z,100578.47
2022-09-04T03:43:12.015Z,100588.03
2022-09-04T03:45:48.069Z,100589.34
2022-09-04T03:48:31.117Z,100584.66
2022-09-04T03:51:11.563Z,100588.19
2022-09-04T03:53:43.438Z,100592.88
2022-09-04T03:56:33.137Z,100600.38
2022-09-04T03:59:05.657Z,100600.22
2022-09-04T04:01:46.591Z,100603.59
2022-09-04T04:04:47.742Z,100584.34
2022-09-04T04:07:30.275Z,100593.03
2022-09-04T04:10:13.430Z,100593.91
2022-09-04T04:13:12.234Z,100593.31
2022-09-04T04:15:56.953Z,100593.88
2022-09-04T04:18:45.057Z,100598.84
2022-09-04T04:21:29.010Z,100598.84
2022-09-04T04:24:38.978Z,100605.84
2022-09-04T04:27:21.769Z,100615.53
2022-09-04T04:30:05.107Z,100621.66
2022-09-04T04:33:01.114Z,100627.25
2022-09-04T04:35:36.578Z,100627.88
2022-09-04T04:38:18.082Z,100629.41
2022-09-04T04:41:02.182Z,100636.06
2022-09-04T04:43:40.368Z,100636.22
2022-09-04T04:46:14.198Z,100634.84
2022-09-04T04:49:13.847Z,100642.59
2022-09-04T04:52:02.317Z,100649.19
2022-09-04T04:54:49.455Z,100649.19
2022-09-04T04:57:27.004Z,100652.53
2022-09-04T05:00:07.174Z,100658.56
2022-09-04T05:02:42.502Z,100663.09
2022-09-04T05:05:15.993Z,100676.31
2022-09-04T05:07:52.698Z,100675.72
2022-09-04T05:10:31.664Z,100679.13
2022-09-04T05:13:12.527Z,100680.63
2022-09-04T05:16:08.015Z,100681.66
2022-09-04T05:18:46.189Z,100685.94
2022-09-04T05:21:22.618Z,100690.34
2022-09-04T05:23:55.297Z,100692.56
2022-09-04T05:26:32.094Z,100695.53
2022-09-04T05:29:07.920Z,100699.22
2022-09-04T05:31:45.985Z,100712.91
2022-09-04T05:34:26.155Z,100702.22
2022-09-04T05:37:07.450Z,100710.63
2022-09-04T05:39:50.454Z,100715.47
2022-09-04T05:42:42.400Z,100723.16
2022-09-04T05:45:22.919Z,100723.63
2022-09-04T05:48:02.501Z,100729.84
2022-09-04T05:50:56.893Z,100731.91
2022-09-04T05:53:44.263Z,100733.28
2022-09-04T05:56:30.447Z,100738.25
2022-09-04T05:59:16.108Z,100740.72
2022-09-04T06:02:05.008Z,100743.63
2022-09-04T06:04:54.401Z,100744.81
2022-09-04T06:07:30.072Z,100740.81
2022-09-04T06:10:11.919Z,100742.84
2022-09-04T06:13:03.694Z,100744.59
2022-09-04T06:15:49.736Z,100743.34
2022-09-04T06:18:46.497Z,100747.25
2022-09-04T06:21:42.290Z,100752.06
2022-09-04T06:24:45.710Z,100756.03
2022-09-04T06:27:25.876Z,100764.25
2022-09-04T06:30:12.406Z,100760.47
2022-09-04T06:33:13.149Z,100767.38
2022-09-04T06:36:01.293Z,100766.56
2022-09-04T06:39:01.436Z,100768.81
2022-09-04T06:41:44.426Z,100770.91
2022-09-04T06:44:28.681Z,100775.44
2022-09-04T06:47:07.393Z,100773.44
2022-09-04T06:49:48.294Z,100778.81
2022-09-04T06:52:23.150Z,100777.03
2022-09-04T06:55:00.170Z,100785.03
2022-09-04T06:57:46.634Z,100784.53
2022-09-04T07:00:16.630Z,100781.09
2022-09-04T07:03:26.127Z,100789.59
2022-09-04T07:06:00.651Z,100803.06
2022-09-04T07:08:39.906Z,100800.53
2022-09-04T07:11:20.333Z,100806.09
2022-09-04T07:14:17.204Z,100803.25
2022-09-04T07:16:56.134Z,100803.53
2022-09-04T07:19:52.071Z,100799.50
2022-09-04T07:23:00.405Z,100813.31
2022-09-04T07:25:41.412Z,100808.31
2022-09-04T07:28:23.776Z,100813.31
2022-09-04T07:30:59.108Z,100810.19
2022-09-04T07:33:36.206Z,100815.28
2022-09-04T07:36:10.873Z,100816.78
2022-09-04T07:38:50.553Z,100818.69
2022-09-04T07:41:28.219Z,100814.91
2022-09-04T07:44:04.707Z,100818.34
2022-09-04T07:46:47.807Z,100832.19
2022-09-04T07:49:23.877Z,100832.28
2022-09-04T07:51:58.155Z,100841.31
2022-09-04T07:54:41.090Z,100842.91
2022-09-04T07:57:26.037Z,100846.22
2022-09-04T08:00:06.007Z,100842.28
2022-09-04T08:03:11.975Z,100844.91
2022-09-04T08:05:45.776Z,100852.63
2022-09-04T08:08:36.009Z,100853.97
2022-09-04T08:11:47.339Z,100852.06
2022-09-04T08:14:26.565Z,100859.53
2022-09-04T08:17:20.861Z,100865.34
2022-09-04T08:19:57.714Z,100862.31
2022-09-04T08:22:35.768Z,100871.13
2022-09-04T08:25:18.136Z,100879.28
2022-09-04T08:27:59.958Z,100875.78
2022-09-04T08:30:36.740Z,100874.38
2022-09-04T08:33:33.991Z,100868.16
2022-09-04T08:36:04.172Z,100875.00
2022-09-04T08:39:08.578Z,100875.66
2022-09-04T08:42:21.666Z,100880.81
2022-09-04T08:45:28.764Z,100881.13
2022-09-04T08:48:29.185Z,100877.94
2022-09-04T08:51:29.207Z,100887.31
2022-09-04T08:54:31.154Z,100885.31
2022-09-04T08:57:24.815Z,100893.09
2022-09-04T09:00:06.758Z,100887.50
2022-09-04T09:03:31.793Z,100891.41
2022-09-04T09:06:32.367Z,100892.38
2022-09-04T09:09:36.047Z,100889.16
2022-09-04T09:12:43.770Z,100889.69
2022-09-04T09:15:29.543Z,100885.00
2022-09-04T09:18:14.054Z,100892.97
2022-09-04T09:20:50.259Z,100886.75
2022-09-04T09:23:22.132Z,100887.50
2022-09-04T09:25:53.324Z,100882.63
2022-09-04T09:29:03.579Z,100886.50
2022-09-04T09:32:00.450Z,100886.56
2022-09-04T09:34:59.887Z,100883.88
2022-09-04T09:38:04.545Z,100888.31
2022-09-04T09:41:11.133Z,100890.09
2022-09-04T09:44:12.917Z,100882.06
2022-09-04T09:47:05.818Z,100889.72
2022-09-04T09:50:00.075Z,100890.25
2022-09-04T09:53:10.673Z,100891.19
2022-09-04T09:55:58.462Z,100879.13
2022-09-04T09:59:07.015Z,100879.25
2022-09-04T10:02:03.314Z,100880.31
2022-09-04T10:05:03.585Z,100873.06
2022-09-04T10:08:04.769Z,100868.78
2022-09-04T10:11:06.161Z,100863.00
2022-09-04T10:13:58.592Z,100868.28
2022-09-04T10:17:09.752Z,100866.13
2022-09-04T10:20:17.673Z,100862.69
2022-09-04T10:23:27.799Z,100868.81
2022-09-04T10:26:20.593Z,100870.31
2022-09-04T10:29:19.699Z,100861.19
2022-09-04T10:31:55.408Z,100856.81
2022-09-04T10:34:48.014Z,100849.78
2022-09-04T10:37:31.908Z,100860.03
2022-09-04T10:40:27.787Z,100860.50
2022-09-04T10:43:10.151Z,100862.06
2022-09-04T10:45:39.803Z,100859.75
2022-09-04T10:48:30.953Z,100852.34
2022-09-04T10:51:34.491Z,100852.84
2022-09-04T10:54:21.351Z,100857.81
2022-09-04T10:57:03.782Z,100859.09
2022-09-04T10:59:49.658Z,100849.69
2022-09-04T11:02:42.124Z,100851.59
2022-09-04T11:05:24.472Z,100853.78
2022-09-04T11:08:16.231Z,100853.94
2022-09-04T11:11:14.071Z,100860.34
2022-09-04T11:14:12.134Z,100863.75
2022-09-04T11:17:04.093Z,100855.28
2022-09-04T11:20:16.136Z,100857.56
2022-09-04T11:23:30.001Z,100847.75
2022-09-04T11:26:18.626Z,100853.44
2022-09-04T11:29:00.796Z,100851.50
2022-09-04T11:31:59.308Z,100852.41
2022-09-04T11:35:04.074Z,100844.75
2022-09-04T11:38:00.180Z,100846.16
2022-09-04T11:41:24.575Z,100846.53
2022-09-04T11:44:15.822Z,100848.63
2022-09-04T11:47:13.077Z,100844.91
2022-09-04T11:49:59.513Z,100839.66
2022-09-04T11:52:46.630Z,100847.41
2022-09-04T11:55:52.120Z,100831.56
2022-09-04T11:58:36.347Z,100843.88
2022-09-04T12:01:25.342Z,100842.59
2022-09-04T12:04:06.451Z,100841.22
2022-09-04T12:06:51.168Z,100835.59
2022-09-04T12:09:58.992Z,100846.13
2022-09-04T12:13:20.025Z,100840.38
2022-09-04T12:16:10.579Z,100842.06
2022-09-04T12:19:00.619Z,100840.28
2022-09-04T12:22:02.621Z,100842.06
2022-09-04T12:24:58.542Z,100841.22
2022-09-04T12:27:57.665Z,100853.25
2022-09-04T12:30:37.389Z,100847.25
2022-09-04T12:33:34.188Z,100841.47
2022-09-04T12:36:43.942Z,100839.44
2022-09-04T12:39:54.621Z,100829.72
2022-09-04T12:42:30.048Z,100839.16
2022-09-04T12:45:05.074Z,100841.19
2022-09-04T12:47:45.810Z,100848.13
2022-09-04T12:50:28.064Z,100837.03
2022-09-04T12:53:15.518Z,100843.94
2022-09-04T12:55:49.334Z,100837.66
2022-09-04T12:58:33.819Z,100835.50
2022-09-04T13:01:10.572Z,100837.53
2022-09-04T13:03:47.113Z,100837.78
2022-09-04T13:06:27.356Z,100843.09
2022-09-04T13:09:09.890Z,100839.59
2022-09-04T13:11:49.181Z,100838.75
2022-09-04T13:14:44.745Z,100835.75
2022-09-04T13:17:26.356Z,100842.59
2022-09-04T13:20:05.136Z,100841.47
2022-09-04T13:22:43.574Z,100839.75
2022-09-04T13:25:27.241Z,100833.06
2022-09-04T13:28:06.205Z,100841.09
2022-09-04T13:30:39.728Z,100833.34
2022-09-04T13:33:25.037Z,100833.91
2022-09-04T13:36:16.425Z,100835.88
2022-09-04T13:39:20.154Z,100832.81
2022-09-04T13:42:16.811Z,100834.53
2022-09-04T13:44:57.917Z,100833.25
2022-09-04T13:47:32.760Z,100834.50
2022-09-04T13:50:10.021Z,100833.00
2022-09-04T13:52:45.556Z,100830.50
2022-09-04T13:55:19.156Z,100824.66
2022-09-04T13:57:57.236Z,100824.44
2022-09-04T14:00:26.252Z,100821.56
2022-09-04T14:03:03.350Z,100819.66
2022-09-04T14:05:37.474Z,100820.94
2022-09-04T14:08:08.731Z,100814.72
2022-09-04T14:11:06.111Z,100814.28
2022-09-04T14:13:53.745Z,100817.41
2022-09-04T14:16:23.859Z,100816.44
2022-09-04T14:19:17.353Z,100812.50
2022-09-04T14:22:02.545Z,100812.56
2022-09-04T14:24:41.988Z,100814.66
2022-09-04T14:27:19.121Z,100807.38
2022-09-04T14:30:07.099Z,100802.53
2022-09-04T14:32:49.381Z,100808.38
2022-09-04T14:35:29.453Z,100818.56
2022-09-04T14:38:20.240Z,100825.38
2022-09-04T14:40:58.283Z,100814.66
2022-09-04T14:43:35.948Z,100811.16
2022-09-04T14:46:15.096Z,100810.69
2022-09-04T14:48:48.423Z,100814.19
2022-09-04T14:51:34.148Z,100820.28
2022-09-04T14:54:03.577Z,100815.19
2022-09-04T14:56:38.781Z,100815.06
2022-09-04T14:59:18.262Z,100808.66
2022-09-04T15:02:16.648Z,100815.06
2022-09-04T15:04:50.698Z,100815.81
2022-09-04T15:07:34.214Z,100815.97
2022-09-04T15:10:14.912Z,100817.84
2022-09-04T15:12:50.846Z,100811.16
2022-09-04T15:15:23.982Z,100816.19
2022-09-04T15:17:57.642Z,100811.16
2022-09-04T15:20:29.824Z,100805.13
2022-09-04T15:23:02.448Z,100807.09
2022-09-04T15:25:58.809Z,100813.88
2022-09-04T15:28:38.329Z,100818.44
2022-09-04T15:31:15.926Z,100808.38
2022-09-04T15:33:47.543Z,100805.34
2022-09-04T15:36:20.058Z,100810.28
2022-09-04T15:38:53.358Z,100807.06
2022-09-04T15:41:35.190Z,100803.16
2022-09-04T15:44:19.021Z,100805.38
2022-09-04T15:46:58.419Z,100803.56
2022-09-04T15:49:31.209Z,100814.81
2022-09-04T15:52:23.047Z,100803.09
2022-09-04T15:55:08.491Z,100799.00
2022-09-04T15:57:51.016Z,100795.31
2022-09-04T16:00:23.786Z,100793.31
2022-09-04T16:02:58.924Z,100797.13
2022-09-04T16:05:41.163Z,100788.66
2022-09-04T16:08:20.855Z,100792.81
2022-09-04T16:11:02.302Z,100788.28
2022-09-04T16:13:46.226Z,100780.38
2022-09-04T16:16:22.038Z,100781.56
2022-09-04T16:19:07.336Z,100779.84
2022-09-04T16:21:44.429Z,100783.97
2022-09-04T16:24:16.047Z,100790.78
2022-09-04T16:26:49.048Z,100787.22
2022-09-04T16:29:36.503Z,100786.03
2022-09-04T16:32:09.585Z,100784.97
2022-09-04T16:34:44.617Z,100774.06
2022-09-04T16:37:18.673Z,100787.91
2022-09-04T16:39:57.337Z,100781.72
2022-09-04T16:42:36.058Z,100783.06
2022-09-04T16:45:11.216Z,100782.03
2022-09-04T16:47:44.861Z,100781.22
2022-09-04T16:50:24.786Z,100778.16
2022-09-04T16:53:13.005Z,100771.22
2022-09-04T16:55:45.713Z,100771.16
2022-09-04T16:58:39.831Z,100768.25
2022-09-04T17:01:16.149Z,100777.75
2022-09-04T17:04:12.589Z,100769.00
2022-09-04T17:06:47.849Z,100767.16
2022-09-04T17:09:23.713Z,100778.38
2022-09-04T17:11:56.132Z,100769.19
2022-09-04T17:14:34.813Z,100767.03
2022-09-04T17:17:17.015Z,100769.28
2022-09-04T17:20:05.437Z,100764.16
2022-09-04T17:28:54.042Z,100762.31
2022-09-04T17:29:11.314Z,100764.97
2022-09-04T17:29:22.443Z,100769.75
2022-09-04T17:31:45.563Z,100772.78
2022-09-04T17:40:00.458Z,100767.88
2022-09-04T17:40:51.159Z,100762.53
2022-09-04T17:41:34.716Z,100763.53
2022-09-04T17:43:22.438Z,100767.78
2022-09-04T17:46:06.626Z,100767.03
2022-09-04T17:48:41.567Z,100771.22
2022-09-04T17:51:17.523Z,100769.53
2022-09-04T17:53:51.535Z,100770.00
2022-09-04T17:56:26.705Z,100775.41
2022-09-04T17:59:02.571Z,100773.69
2022-09-04T18:01:36.513Z,100776.94
2022-09-04T18:04:32.535Z,100778.56
2022-09-04T18:07:28.955Z,100774.78
2022-09-04T18:10:08.362Z,100783.50
2022-09-04T18:12:43.002Z,100782.59
2022-09-04T18:15:33.203Z,100785.31
2022-09-04T18:18:12.522Z,100792.94
2022-09-04T18:20:51.671Z,100797.19
2022-09-04T18:23:51.614Z,100808.38
2022-09-04T18:26:40.124Z,100800.72
2022-09-04T18:33:00.420Z,100805.75
2022-09-04T18:37:17.713Z,100811.91
2022-09-04T18:37:18.215Z,100808.00
2022-09-04T18:38:20.584Z,100813.28
2022-09-04T18:43:45.034Z,100821.66
2022-09-04T18:50:32.730Z,100826.66
2022-09-04T18:50:53.075Z,100822.00
2022-09-04T18:50:53.242Z,100824.53
2022-09-04T18:52:19.071Z,100820.41
2022-09-04T18:54:50.832Z,100833.59
2022-09-04T18:57:28.515Z,100829.59
2022-09-04T19:00:08.844Z,100835.84
2022-09-04T19:02:52.990Z,100836.41
2022-09-04T19:05:24.258Z,100840.34
2022-09-04T19:07:57.825Z,100836.97
2022-09-04T19:10:31.222Z,100841.31
2022-09-04T19:13:05.188Z,100841.81
2022-09-04T19:15:53.592Z,100846.97
2022-09-04T19:18:27.378Z,100847.31
2022-09-04T19:21:19.505Z,100848.69
2022-09-04T19:23:52.187Z,100854.44
2022-09-04T19:26:28.962Z,100855.19
2022-09-04T19:29:05.727Z,100848.13
2022-09-04T19:31:40.251Z,100853.75
2022-09-04T19:34:18.539Z,100845.44
2022-09-04T19:36:52.527Z,100849.63
2022-09-04T19:44:55.112Z,100843.16
2022-09-04T19:46:02.729Z,100849.63
2022-09-04T19:46:15.958Z,100849.50
2022-09-04T19:48:20.802Z,100851.13
2022-09-04T19:53:19.806Z,100848.56
2022-09-04T19:53:52.367Z,100849.03
2022-09-04T19:56:29.931Z,100853.34
2022-09-04T19:59:06.278Z,100849.03
2022-09-04T20:01:45.682Z,100854.44
2022-09-04T20:04:26.042Z,100860.91
2022-09-04T20:06:59.443Z,100857.50
2022-09-04T20:09:33.883Z,100852.72
2022-09-04T20:12:10.826Z,100857.59
2022-09-04T20:14:45.301Z,100860.91
2022-09-04T20:17:27.847Z,100852.19
2022-09-04T20:19:59.581Z,100853.44
2022-09-04T20:22:33.303Z,100854.16
2022-09-04T20:25:28.229Z,100852.66
2022-09-04T20:28:01.458Z,100853.00
2022-09-04T20:30:32.271Z,100857.28
2022-09-04T20:33:05.101Z,100852.13
2022-09-04T20:35:39.202Z,100856.50
2022-09-04T20:38:23.530Z,100854.78
2022-09-04T20:40:57.473Z,100844.16
2022-09-04T20:43:31.747Z,100847.13
2022-09-04T20:51:29.334Z,100850.91
2022-09-04T20:52:52.793Z,100841.59
2022-09-04T20:52:53.164Z,100852.94
2022-09-04T20:55:15.617Z,100850.41
2022-09-04T21:00:10.751Z,100854.78
2022-09-04T21:03:21.099Z,100851.34
2022-09-04T21:04:05.158Z,100850.13
2022-09-04T21:06:42.514Z,100846.78
2022-09-04T21:09:30.163Z,100855.59
2022-09-04T21:12:16.915Z,100857.69
2022-09-04T21:14:49.333Z,100854.25
2022-09-04T21:17:38.454Z,100854.38
2022-09-04T21:20:50.396Z,100860.41
2022-09-04T21:24:03.733Z,100858.28
2022-09-04T21:26:53.849Z,100858.00
2022-09-04T21:29:38.851Z,100869.38
2022-09-04T21:32:24.340Z,100869.94
2022-09-04T21:34:58.590Z,100871.16
2022-09-04T21:37:40.203Z,100875.69
2022-09-04T21:40:51.467Z,100880.19
2022-09-04T21:43:53.770Z,100882.84
2022-09-04T21:46:39.868Z,100882.47
2022-09-04T21:49:31.953Z,100888.28
2022-09-04T21:52:24.636Z,100888.97
2022-09-04T21:58:52.369Z,100889.75
2022-09-04T22:02:29.530Z,100893.38
2022-09-04T22:02:36.874Z,100887.06
2022-09-04T22:04:05.487Z,100895.06
2022-09-04T22:07:56.330Z,100895.94
2022-09-04T22:13:29.944Z,100901.91
2022-09-04T22:13:39.967Z,100898.41
2022-09-04T22:15:59.181Z,100895.19
2022-09-04T22:18:43.554Z,100901.69
2022-09-04T22:21:25.805Z,100898.75
2022-09-04T22:24:27.528Z,100905.38
2022-09-04T22:27:37.656Z,100903.47
2022-09-04T22:30:33.201Z,100908.84
2022-09-04T22:34:14.111Z,100905.28
2022-09-04T22:37:01.110Z,100901.47
2022-09-04T22:39:49.807Z,100909.16
2022-09-04T22:42:33.177Z,100908.69
2022-09-04T22:45:39.728Z,100906.94
2022-09-04T22:48:37.522Z,100907.25
2022-09-04T22:51:23.607Z,100911.81
2022-09-04T22:54:11.555Z,100911.94
2022-09-04T22:56:52.313Z,100909.88
2022-09-04T22:59:36.816Z,100904.13
2022-09-04T23:03:07.101Z,100915.72
2022-09-04T23:05:41.825Z,100909.38
2022-09-04T23:13:42.377Z,100916.56
2022-09-04T23:13:59.884Z,100924.56
2022-09-04T23:14:39.773Z,100925.44
2022-09-04T23:17:32.577Z,100922.78
2022-09-04T23:26:36.319Z,100927.22
2022-09-04T23:26:47.349Z,100923.53
2022-09-04T23:27:28.041Z,100927.25
2022-09-04T23:30:10.336Z,100930.78
2022-09-04T23:33:28.448Z,100937.53
2022-09-04T23:36:03.860Z,100929.00
2022-09-04T23:38:52.462Z,100933.09
2022-09-04T23:41:31.064Z,100932.69
2022-09-04T23:44:34.214Z,100922.78
2022-09-04T23:47:48.091Z,100929.06
2022-09-04T23:50:31.100Z,100927.69
2022-09-04T23:53:10.147Z,100924.75
2022-09-04T23:56:25.586Z,100922.06
2022-09-04T23:59:36.811Z,100925.59
